createdAt,value
2022-09-14T00:01:24.719Z,57.90
2022-09-14T00:03:54.801Z,57.90
2022-09-14T00:06:21.544Z,57.70
2022-09-14T00:08:56.641Z,57.70
2022-09-14T00:11:25.417Z,58.00
2022-09-14T00:13:53.225Z,57.90
2022-09-14T00:16:28.955Z,57.90
2022-09-14T00:19:16.055Z,58.10
2022-09-14T00:21:42.779Z,57.90
2022-09-14T00:24:10.982Z,58.00
2022-09-14T00:26:38.154Z,58.10
2022-09-14T00:29:05.742Z,58.00
2022-09-14T00:31:34.656Z,57.60
2022-09-14T00:34:02.716Z,57.90
2022-09-14T00:36:30.521Z,57.90
2022-09-14T00:38:58.035Z,57.90
2022-09-14T00:41:27.636Z,57.70
2022-09-14T00:43:56.599Z,57.80
2022-09-14T00:46:24.758Z,57.90
2022-09-14T00:48:51.968Z,57.90
2022-09-14T00:51:20.100Z,57.90
2022-09-14T00:53:47.560Z,58.00
2022-09-14T00:56:14.760Z,57.90
2022-09-14T00:58:44.075Z,57.90
2022-09-14T01:01:11.085Z,58.10
2022-09-14T01:03:38.104Z,57.90
2022-09-14T01:06:14.277Z,57.90
2022-09-14T01:09:05.995Z,57.90
2022-09-14T01:11:41.620Z,57.30
2022-09-14T01:14:28.012Z,57.80
2022-09-14T01:17:10.285Z,57.90
2022-09-14T01:20:02.492Z,57.90
2022-09-14T01:22:42.862Z,57.70
2022-09-14T01:25:30.042Z,57.80
2022-09-14T01:28:00.838Z,57.50
2022-09-14T01:30:31.881Z,57.90
2022-09-14T01:33:10.264Z,58.00
2022-09-14T01:35:44.361Z,58.00
2022-09-14T01:38:23.423Z,58.00
2022-09-14T01:40:50.755Z,58.20
2022-09-14T01:43:29.720Z,58.00
2022-09-14T01:46:00.897Z,58.40
2022-09-14T01:48:34.022Z,58.20
2022-09-14T01:51:05.593Z,58.10
2022-09-14T01:53:49.532Z,58.10
2022-09-14T01:56:20.280Z,57.70
2022-09-14T01:59:05.591Z,58.20
2022-09-14T02:01:38.125Z,57.90
2022-09-14T02:04:10.132Z,58.30
2022-09-14T02:06:46.908Z,58.20
2022-09-14T02:09:22.700Z,58.20
2022-09-14T02:11:49.510Z,58.00
2022-09-14T02:14:16.325Z,57.80
2022-09-14T02:16:46.093Z,58.10
2022-09-14T02:19:13.863Z,58.10
2022-09-14T02:21:40.948Z,58.20
2022-09-14T02:24:07.740Z,58.10
2022-09-14T02:26:36.208Z,57.90
2022-09-14T02:29:03.700Z,57.90
2022-09-14T02:31:56.243Z,57.90
2022-09-14T02:34:23.581Z,57.40
2022-09-14T02:36:50.092Z,57.80
2022-09-14T02:39:26.932Z,57.80
2022-09-14T02:42:11.634Z,57.90
2022-09-14T02:45:00.849Z,58.00
2022-09-14T02:47:55.417Z,57.10
2022-09-14T02:50:34.170Z,58.00
2022-09-14T02:53:12.885Z,57.80
2022-09-14T02:55:46.274Z,57.70
2022-09-14T02:58:14.418Z,58.00
2022-09-14T03:00:50.836Z,57.90
2022-09-14T03:03:20.487Z,57.90
2022-09-14T03:05:47.631Z,58.00
2022-09-14T03:08:14.742Z,57.60
2022-09-14T03:10:44.596Z,57.70
2022-09-14T03:13:11.644Z,58.00
2022-09-14T03:15:38.831Z,57.70
2022-09-14T03:18:09.988Z,57.90
2022-09-14T03:20:39.534Z,57.80
2022-09-14T03:23:08.941Z,57.70
2022-09-14T03:25:41.280Z,57.60
2022-09-14T03:28:09.024Z,57.50
2022-09-14T03:30:36.022Z,57.60
2022-09-14T03:33:03.281Z,57.50
2022-09-14T03:35:31.426Z,57.50
2022-09-14T03:37:59.514Z,57.50
2022-09-14T03:40:27.312Z,57.50
2022-09-14T03:42:54.143Z,57.50
2022-09-14T03:45:21.728Z,57.50
2022-09-14T03:47:49.070Z,57.50
2022-09-14T03:50:16.888Z,57.50
2022-09-14T03:52:43.459Z,57.40
2022-09-14T03:55:10.911Z,57.40
2022-09-14T03:57:37.707Z,57.60
2022-09-14T04:00:07.061Z,57.50
2022-09-14T04:02:33.725Z,57.60
2022-09-14T04:05:00.359Z,57.50
2022-09-14T04:07:27.011Z,57.50
2022-09-14T04:09:53.584Z,57.70
2022-09-14T04:12:20.123Z,57.60
2022-09-14T04:14:46.691Z,57.60
2022-09-14T04:17:13.460Z,57.50
2022-09-14T04:19:40.886Z,57.50
2022-09-14T04:22:08.980Z,57.50
2022-09-14T04:24:35.725Z,57.70
2022-09-14T04:27:02.276Z,57.80
2022-09-14T04:29:30.483Z,57.90
2022-09-14T04:31:57.992Z,58.00
2022-09-14T04:34:24.685Z,57.80
2022-09-14T04:36:51.238Z,57.50
2022-09-14T04:39:20.816Z,57.70
2022-09-14T04:41:47.504Z,57.90
2022-09-14T04:44:14.564Z,57.80
2022-09-14T04:46:46.186Z,57.80
2022-09-14T04:49:18.691Z,57.70
2022-09-14T04:51:45.312Z,57.80
2022-09-14T04:54:15.263Z,57.80
2022-09-14T04:56:42.158Z,57.90
2022-09-14T04:59:08.868Z,57.80
2022-09-14T05:01:38.366Z,57.80
2022-09-14T05:04:05.973Z,57.80
2022-09-14T05:06:34.319Z,57.70
2022-09-14T05:09:02.838Z,57.70
2022-09-14T05:11:32.065Z,57.80
2022-09-14T05:13:59.686Z,58.00
2022-09-14T05:16:28.707Z,57.80
2022-09-14T05:18:57.608Z,57.90
2022-09-14T05:21:24.903Z,57.90
2022-09-14T05:24:18.429Z,58.00
2022-09-14T05:26:46.274Z,57.10
2022-09-14T05:29:15.112Z,57.80
2022-09-14T05:31:42.008Z,58.00
2022-09-14T05:34:10.312Z,57.80
2022-09-14T05:36:37.851Z,57.90
2022-09-14T05:39:05.631Z,57.90
2022-09-14T05:41:32.280Z,57.70
2022-09-14T05:43:59.941Z,57.60
2022-09-14T05:46:26.988Z,57.60
2022-09-14T05:48:53.715Z,57.70
2022-09-14T05:51:25.244Z,58.00
2022-09-14T05:53:54.510Z,58.20
2022-09-14T05:56:22.308Z,58.00
2022-09-14T05:58:49.465Z,58.70
2022-09-14T06:01:22.435Z,58.40
2022-09-14T06:03:50.216Z,58.50
2022-09-14T06:06:19.275Z,58.40
2022-09-14T06:08:46.673Z,58.60
2022-09-14T06:11:16.310Z,58.50
2022-09-14T06:13:44.387Z,58.50
2022-09-14T06:16:15.154Z,58.40
2022-09-14T06:18:43.686Z,58.70
2022-09-14T06:21:14.996Z,58.50
2022-09-14T06:23:42.077Z,58.30
2022-09-14T06:26:08.770Z,58.50
2022-09-14T06:28:36.057Z,58.30
2022-09-14T06:31:04.477Z,58.40
2022-09-14T06:33:33.371Z,58.60
2022-09-14T06:36:02.593Z,58.50
2022-09-14T06:38:30.171Z,58.20
2022-09-14T06:40:59.520Z,58.20
2022-09-14T06:43:27.984Z,57.90
2022-09-14T06:46:04.569Z,58.10
2022-09-14T06:48:34.279Z,58.30
2022-09-14T06:51:10.282Z,58.10
2022-09-14T06:53:36.904Z,58.20
2022-09-14T06:56:03.627Z,58.30
2022-09-14T06:58:33.661Z,58.30
2022-09-14T07:01:05.128Z,58.40
2022-09-14T07:03:32.132Z,58.60
2022-09-14T07:06:07.330Z,58.20
2022-09-14T07:08:35.427Z,58.40
2022-09-14T07:11:04.368Z,58.30
2022-09-14T07:13:32.232Z,58.10
2022-09-14T07:15:59.283Z,58.10
2022-09-14T07:18:32.857Z,58.10
2022-09-14T07:21:20.558Z,58.20
2022-09-14T07:23:48.190Z,57.30
2022-09-14T07:26:19.076Z,58.00
2022-09-14T07:28:48.716Z,58.10
2022-09-14T07:31:21.075Z,58.00
2022-09-14T07:33:48.698Z,58.30
2022-09-14T07:36:15.694Z,58.10
2022-09-14T07:38:52.282Z,58.00
2022-09-14T07:41:25.501Z,57.70
2022-09-14T07:43:54.278Z,58.00
2022-09-14T07:46:22.164Z,57.70
2022-09-14T07:48:54.153Z,57.70
2022-09-14T07:51:20.720Z,57.60
2022-09-14T07:53:47.329Z,57.80
2022-09-14T07:56:16.537Z,58.00
2022-09-14T07:58:44.169Z,58.40
2022-09-14T08:01:13.842Z,58.30
2022-09-14T08:03:42.863Z,58.40
2022-09-14T08:06:13.014Z,58.50
2022-09-14T08:08:42.825Z,58.50
2022-09-14T08:11:15.103Z,58.40
2022-09-14T08:13:48.471Z,58.30
2022-09-14T08:16:15.546Z,58.20
2022-09-14T08:18:42.163Z,57.90
2022-09-14T08:21:11.162Z,58.20
2022-09-14T08:23:38.683Z,58.20
2022-09-14T08:26:06.313Z,58.10
2022-09-14T08:28:34.012Z,57.70
2022-09-14T08:31:05.492Z,57.80
2022-09-14T08:33:33.907Z,57.60
2022-09-14T08:36:00.949Z,57.90
2022-09-14T08:38:27.798Z,58.10
2022-09-14T08:40:54.880Z,58.10
2022-09-14T08:43:25.319Z,58.10
2022-09-14T08:45:59.095Z,57.90
2022-09-14T08:48:31.209Z,58.00
2022-09-14T08:50:57.800Z,57.70
2022-09-14T08:53:26.520Z,57.80
2022-09-14T08:56:17.307Z,58.00
2022-09-14T08:59:02.497Z,57.00
2022-09-14T09:01:47.788Z,57.30
2022-09-14T09:04:32.431Z,57.40
2022-09-14T09:07:28.591Z,57.90
2022-09-14T09:09:57.495Z,56.80
2022-09-14T09:12:49.462Z,57.70
2022-09-14T09:15:31.127Z,57.20
2022-09-14T09:18:13.044Z,57.40
2022-09-14T09:20:46.174Z,57.80
2022-09-14T09:23:16.003Z,57.80
2022-09-14T09:26:06.476Z,57.40
2022-09-14T09:28:33.664Z,56.80
2022-09-14T09:31:12.676Z,57.40
2022-09-14T09:33:41.701Z,57.40
2022-09-14T09:36:12.821Z,57.40
2022-09-14T09:38:39.376Z,57.60
2022-09-14T09:41:05.967Z,57.70
2022-09-14T09:43:49.248Z,57.60
2022-09-14T09:46:17.844Z,57.60
2022-09-14T09:48:46.939Z,57.50
2022-09-14T09:51:18.876Z,57.40
2022-09-14T09:53:54.060Z,57.50
2022-09-14T09:56:25.502Z,57.40
2022-09-14T09:58:52.536Z,57.40
2022-09-14T10:01:31.367Z,57.20
2022-09-14T10:04:23.085Z,56.90
2022-09-14T10:06:51.920Z,57.30
2022-09-14T10:09:27.554Z,56.90
2022-09-14T10:12:02.892Z,56.80
2022-09-14T10:14:37.964Z,56.40
2022-09-14T10:17:22.383Z,56.20
2022-09-14T10:19:52.384Z,56.20
2022-09-14T10:22:31.142Z,56.50
2022-09-14T10:25:02.016Z,56.50
2022-09-14T10:27:37.832Z,56.70
2022-09-14T10:30:09.857Z,56.90
2022-09-14T10:32:38.682Z,56.80
2022-09-14T10:35:12.413Z,57.00
2022-09-14T10:38:08.539Z,57.00
2022-09-14T10:40:43.914Z,56.70
2022-09-14T10:43:30.382Z,56.70
2022-09-14T10:46:03.437Z,56.60
2022-09-14T10:48:36.347Z,57.00
2022-09-14T10:51:08.920Z,57.00
2022-09-14T10:53:53.902Z,57.00
2022-09-14T10:56:41.595Z,56.60
2022-09-14T10:59:19.820Z,56.20
2022-09-14T11:02:04.713Z,56.70
2022-09-14T11:04:50.584Z,56.30
2022-09-14T11:07:55.224Z,54.70
2022-09-14T11:10:21.709Z,55.30
2022-09-14T11:13:16.230Z,56.90
2022-09-14T11:16:09.842Z,56.80
2022-09-14T11:18:57.016Z,56.80
2022-09-14T11:21:46.886Z,56.80
2022-09-14T11:24:35.240Z,56.70
2022-09-14T11:27:15.579Z,56.00
2022-09-14T11:29:51.856Z,56.50
2022-09-14T11:32:38.093Z,56.80
2022-09-14T11:35:22.301Z,56.30
2022-09-14T11:38:02.611Z,56.60
2022-09-14T11:40:37.288Z,56.60
2022-09-14T11:43:39.455Z,56.50
2022-09-14T11:46:49.645Z,56.30
2022-09-14T11:49:48.665Z,55.50
2022-09-14T11:52:15.259Z,56.50
2022-09-14T11:54:57.177Z,56.60
2022-09-14T11:57:31.881Z,56.70
2022-09-14T11:59:59.860Z,56.50
2022-09-14T12:02:27.508Z,54.50
2022-09-14T12:05:06.726Z,56.20
2022-09-14T12:07:39.340Z,56.30
2022-09-14T12:10:17.667Z,56.60
2022-09-14T12:12:53.158Z,56.30
2022-09-14T12:15:26.060Z,56.30
2022-09-14T12:17:54.126Z,56.30
2022-09-14T12:20:45.016Z,56.40
2022-09-14T12:23:23.616Z,56.00
2022-09-14T12:26:22.564Z,56.50
2022-09-14T12:28:52.427Z,56.10
2022-09-14T12:31:57.199Z,56.50
2022-09-14T12:34:32.159Z,56.10
2022-09-14T12:37:21.500Z,56.50
2022-09-14T12:40:26.171Z,56.20
2022-09-14T12:42:52.798Z,55.70
2022-09-14T12:45:51.833Z,56.00
2022-09-14T12:48:49.430Z,55.70
2022-09-14T12:51:31.594Z,55.60
2022-09-14T12:54:01.366Z,56.30
2022-09-14T12:56:32.087Z,56.20
2022-09-14T12:59:01.432Z,56.50
2022-09-14T13:02:08.373Z,56.40
2022-09-14T13:04:38.120Z,55.50
2022-09-14T13:07:13.116Z,56.30
2022-09-14T13:09:47.010Z,56.30
2022-09-14T13:12:15.164Z,56.20
2022-09-14T13:14:52.973Z,55.80
2022-09-14T13:17:19.676Z,56.00
2022-09-14T13:19:58.430Z,55.90
2022-09-14T13:22:27.388Z,56.00
2022-09-14T13:24:54.161Z,55.80
2022-09-14T13:27:33.842Z,55.80
2022-09-14T13:30:26.283Z,55.60
2022-09-14T13:32:56.414Z,55.90
2022-09-14T13:35:38.723Z,56.00
2022-09-14T13:38:09.064Z,55.70
2022-09-14T13:40:36.004Z,55.80
2022-09-14T13:43:03.004Z,55.80
2022-09-14T13:45:29.945Z,55.50
2022-09-14T13:47:56.835Z,55.50
2022-09-14T13:50:27.224Z,55.70
2022-09-14T13:53:03.403Z,55.50
2022-09-14T13:55:33.295Z,55.20
2022-09-14T13:58:12.043Z,55.30
2022-09-14T14:00:49.309Z,55.30
2022-09-14T14:03:33.531Z,55.40
2022-09-14T14:06:20.538Z,55.30
2022-09-14T14:08:53.271Z,55.60
2022-09-14T14:11:28.017Z,55.10
2022-09-14T14:13:54.534Z,55.20
2022-09-14T14:16:26.561Z,54.10
2022-09-14T14:18:56.037Z,55.20
2022-09-14T14:21:30.468Z,55.30
2022-09-14T14:24:27.759Z,55.40
2022-09-14T14:26:57.754Z,55.10
2022-09-14T14:29:25.836Z,55.60
2022-09-14T14:31:55.725Z,55.70
2022-09-14T14:34:28.080Z,55.80
2022-09-14T14:36:55.796Z,56.10
2022-09-14T14:39:24.376Z,55.80
2022-09-14T14:41:51.954Z,55.70
2022-09-14T14:44:23.000Z,56.00
2022-09-14T14:46:49.686Z,55.90
2022-09-14T14:49:21.873Z,55.90
2022-09-14T14:51:48.574Z,55.70
2022-09-14T14:54:17.840Z,55.80
2022-09-14T14:56:49.387Z,55.80
2022-09-14T14:59:21.928Z,55.70
2022-09-14T15:01:50.172Z,55.90
2022-09-14T15:04:16.833Z,55.80
2022-09-14T15:06:43.799Z,56.00
2022-09-14T15:09:14.997Z,55.80
2022-09-14T15:11:41.686Z,55.80
2022-09-14T15:14:13.682Z,55.60
2022-09-14T15:16:40.331Z,55.50
2022-09-14T15:19:07.233Z,55.30
2022-09-14T15:21:33.964Z,55.00
2022-09-14T15:24:01.265Z,55.00
2022-09-14T15:26:28.181Z,55.00
2022-09-14T15:28:54.812Z,55.00
2022-09-14T15:31:22.065Z,54.80
2022-09-14T15:33:48.696Z,54.70
2022-09-14T15:36:38.803Z,54.70
2022-09-14T15:39:07.164Z,54.60
2022-09-14T15:41:34.032Z,54.80
2022-09-14T15:44:01.063Z,54.80
2022-09-14T15:46:27.808Z,54.90
2022-09-14T15:48:54.394Z,54.90
2022-09-14T15:51:21.017Z,55.10
2022-09-14T15:53:47.899Z,54.90
2022-09-14T15:56:16.192Z,55.10
2022-09-14T15:58:47.816Z,55.20
2022-09-14T16:01:19.484Z,54.90
2022-09-14T16:03:46.192Z,55.10
2022-09-14T16:06:14.187Z,55.20
2022-09-14T16:08:43.008Z,55.30
2022-09-14T16:11:09.618Z,55.10
2022-09-14T16:13:36.429Z,54.70
2022-09-14T16:16:08.667Z,54.80
2022-09-14T16:18:36.311Z,54.80
2022-09-14T16:21:14.232Z,54.70
2022-09-14T16:23:45.073Z,54.90
2022-09-14T16:26:17.985Z,55.00
2022-09-14T16:28:46.263Z,55.00
2022-09-14T16:31:17.043Z,55.00
2022-09-14T16:33:48.855Z,55.10
2022-09-14T16:36:20.900Z,55.30
2022-09-14T16:38:47.741Z,54.90
2022-09-14T16:41:15.885Z,54.80
2022-09-14T16:43:42.442Z,54.70
2022-09-14T16:46:12.680Z,54.70
2022-09-14T16:48:44.254Z,54.70
2022-09-14T16:51:12.188Z,54.70
2022-09-14T16:53:40.729Z,54.80
2022-09-14T16:56:12.953Z,54.80
2022-09-14T16:58:39.524Z,55.00
2022-09-14T17:01:08.447Z,55.00
2022-09-14T17:03:36.025Z,55.10
2022-09-14T17:06:08.186Z,55.10
2022-09-14T17:08:35.856Z,55.30
2022-09-14T17:11:06.633Z,55.10
2022-09-14T17:13:33.393Z,55.10
2022-09-14T17:16:11.654Z,55.20
2022-09-14T17:18:40.811Z,55.30
2022-09-14T17:21:11.738Z,55.30
2022-09-14T17:23:39.749Z,55.40
2022-09-14T17:26:08.861Z,55.30
2022-09-14T17:28:36.163Z,55.30
2022-09-14T17:31:05.085Z,55.20
2022-09-14T17:33:34.215Z,55.30
2022-09-14T17:36:01.289Z,55.20
2022-09-14T17:38:31.426Z,55.20
2022-09-14T17:41:10.784Z,55.30
2022-09-14T17:43:38.983Z,55.40
2022-09-14T17:46:07.619Z,55.20
2022-09-14T17:48:36.881Z,55.30
2022-09-14T17:51:25.255Z,55.40
2022-09-14T17:53:54.321Z,54.50
2022-09-14T17:56:22.745Z,55.30
2022-09-14T17:58:58.372Z,55.50
2022-09-14T18:01:25.111Z,55.50
2022-09-14T18:03:58.831Z,55.30
2022-09-14T18:06:29.748Z,55.60
2022-09-14T18:09:02.396Z,55.60
2022-09-14T18:11:29.831Z,55.90
2022-09-14T18:13:56.673Z,55.80
2022-09-14T18:16:24.614Z,55.80
2022-09-14T18:18:51.630Z,55.90
2022-09-14T18:21:18.796Z,56.00
2022-09-14T18:23:53.292Z,56.20
2022-09-14T18:26:20.818Z,56.30
2022-09-14T18:28:47.713Z,56.10
2022-09-14T18:31:16.766Z,55.90
2022-09-14T18:33:48.631Z,56.20
2022-09-14T18:36:15.399Z,56.40
2022-09-14T18:38:42.904Z,56.50
2022-09-14T18:41:11.561Z,56.40
2022-09-14T18:43:41.864Z,56.50
2022-09-14T18:46:09.065Z,56.50
2022-09-14T18:48:35.775Z,56.40
2022-09-14T18:51:04.905Z,56.40
2022-09-14T18:53:32.305Z,56.50
2022-09-14T18:56:08.716Z,56.50
2022-09-14T18:58:37.343Z,56.40
2022-09-14T19:01:04.665Z,56.50
2022-09-14T19:03:33.201Z,56.60
2022-09-14T19:06:08.136Z,56.90
2022-09-14T19:08:35.394Z,57.00
2022-09-14T19:11:10.956Z,56.80
2022-09-14T19:13:38.396Z,56.90
2022-09-14T19:16:10.744Z,56.90
2022-09-14T19:18:38.079Z,57.00
2022-09-14T19:21:13.991Z,57.00
2022-09-14T19:23:40.992Z,57.30
2022-09-14T19:26:14.933Z,57.00
2022-09-14T19:28:42.184Z,57.20
2022-09-14T19:31:12.073Z,56.90
2022-09-14T19:33:44.487Z,57.00
2022-09-14T19:36:14.744Z,56.90
2022-09-14T19:38:42.285Z,57.00
2022-09-14T19:41:09.005Z,57.20
2022-09-14T19:43:36.298Z,57.20
2022-09-14T19:46:12.047Z,57.20
2022-09-14T19:48:38.997Z,57.20
2022-09-14T19:51:08.041Z,57.30
2022-09-14T19:53:36.065Z,57.80
2022-09-14T19:56:05.402Z,57.80
2022-09-14T19:58:35.748Z,57.80
2022-09-14T20:01:03.077Z,58.00
2022-09-14T20:03:29.876Z,57.80
2022-09-14T20:06:04.767Z,57.60
2022-09-14T20:08:32.930Z,57.90
2022-09-14T20:11:10.936Z,57.90
2022-09-14T20:13:38.557Z,58.00
2022-09-14T20:16:18.536Z,57.90
2022-09-14T20:18:46.765Z,58.10
2022-09-14T20:21:16.973Z,57.90
2022-09-14T20:24:04.279Z,58.00
2022-09-14T20:26:30.849Z,57.90
2022-09-14T20:29:01.885Z,57.90
2022-09-14T20:31:29.667Z,58.00
2022-09-14T20:33:57.145Z,58.00
2022-09-14T20:36:28.653Z,57.90
2022-09-14T20:38:58.553Z,57.90
2022-09-14T20:41:28.476Z,57.90
2022-09-14T20:43:55.439Z,58.00
2022-09-14T20:46:38.411Z,57.70
2022-09-14T20:49:07.841Z,57.90
2022-09-14T20:51:36.118Z,57.70
2022-09-14T20:54:03.136Z,57.80
2022-09-14T20:56:31.658Z,57.60
2022-09-14T20:59:01.323Z,57.90
2022-09-14T21:01:30.811Z,57.80
2022-09-14T21:04:09.619Z,57.80
2022-09-14T21:06:40.044Z,57.70
2022-09-14T21:09:07.832Z,57.90
2022-09-14T21:11:34.418Z,57.80
2022-09-14T21:14:01.603Z,57.70
2022-09-14T21:16:34.715Z,57.90
2022-09-14T21:19:04.033Z,58.00
2022-09-14T21:21:31.417Z,57.90
2022-09-14T21:23:59.670Z,58.00
2022-09-14T21:26:28.897Z,58.00
2022-09-14T21:28:57.559Z,58.10
2022-09-14T21:31:25.594Z,58.00
2022-09-14T21:33:58.743Z,58.00
2022-09-14T21:36:28.851Z,58.00
2022-09-14T21:38:57.761Z,58.10
2022-09-14T21:41:25.786Z,58.00
2022-09-14T21:43:53.464Z,58.00
2022-09-14T21:46:20.162Z,57.90
2022-09-14T21:48:47.236Z,57.90
2022-09-14T21:51:17.007Z,57.90
2022-09-14T21:53:52.910Z,58.10
2022-09-14T21:56:20.903Z,58.10
2022-09-14T21:58:52.550Z,58.00
2022-09-14T22:01:21.478Z,58.10
2022-09-14T22:03:52.887Z,57.90
2022-09-14T22:06:22.161Z,58.00
2022-09-14T22:08:49.761Z,58.00
2022-09-14T22:11:23.461Z,58.10
2022-09-14T22:14:18.008Z,58.20
2022-09-14T22:16:45.128Z,57.40
2022-09-14T22:19:19.218Z,57.80
2022-09-14T22:21:46.285Z,58.10
2022-09-14T22:24:19.284Z,57.90
2022-09-14T22:26:47.060Z,58.20
2022-09-14T22:29:18.667Z,57.90
2022-09-14T22:31:45.757Z,58.00
2022-09-14T22:34:13.574Z,58.00
2022-09-14T22:36:40.286Z,58.10
2022-09-14T22:39:07.803Z,58.10
2022-09-14T22:41:35.172Z,58.00
2022-09-14T22:44:03.103Z,58.10
2022-09-14T22:46:30.086Z,58.10
2022-09-14T22:48:56.820Z,58.20
2022-09-14T22:51:26.066Z,58.10
2022-09-14T22:53:53.012Z,58.30
2022-09-14T22:56:23.827Z,58.30
2022-09-14T22:58:51.154Z,58.40
2022-09-14T23:01:21.386Z,58.40
2022-09-14T23:03:48.437Z,58.60
2022-09-14T23:06:15.542Z,58.60
2022-09-14T23:08:42.208Z,58.70
2022-09-14T23:11:11.140Z,58.60
2022-09-14T23:13:40.105Z,58.70
2022-09-14T23:16:12.036Z,58.90
2022-09-14T23:18:38.933Z,59.00
2022-09-14T23:21:05.663Z,58.80
2022-09-14T23:23:32.402Z,58.70
2022-09-14T23:26:07.699Z,58.90
2022-09-14T23:28:35.168Z,59.20
2022-09-14T23:31:02.214Z,58.90
2022-09-14T23:33:29.723Z,58.80
2022-09-14T23:35:56.402Z,59.10
2022-09-14T23:38:23.907Z,59.00
2022-09-14T23:40:50.829Z,58.90
2022-09-14T23:43:18.403Z,58.80
2022-09-14T23:45:46.459Z,58.80
2022-09-14T23:48:13.919Z,58.90
2022-09-14T23:50:40.530Z,58.80
2022-09-14T23:53:07.344Z,58.80
2022-09-14T23:55:34.201Z,58.80
2022-09-14T23:58:00.777Z,58.80
